CST,Max TemperatureF,Mean TemperatureF,Min TemperatureF,Max Dew PointF,MeanDew PointF,Min DewpointF,Max Humidity, Mean Humidity, Min Humidity, Max Sea Level PressureIn, Mean Sea Level PressureIn, Min Sea Level PressureIn, Max VisibilityMiles, Mean VisibilityMiles, Min VisibilityMiles, Max Wind SpeedMPH, Mean Wind SpeedMPH, Max Gust SpeedMPH,PrecipitationIn, CloudCover, Events, WindDirDegrees
2012-12-1,55,42,28,54,44,28,100,93,85,30.05,29.87,29.77,7,3,0,14,7,18,0.00,7,Fog,162
2012-12-2,59,48,37,50,45,37,100,76,51,30.02,29.92,29.83,10,3,0,18,6,24,0.00,5,Fog,300
2012-12-3,68,52,36,59,50,32,100,81,62,30.01,29.77,29.64,10,7,0,26,14,32,0.00,5,Fog,196
2012-12-4,55,40,24,30,26,19,82,59,35,30.39,30.20,30.03,10,10,10,15,8,18,0.00,0,,317
2012-12-5,43,32,20,33,23,16,84,68,51,30.40,30.25,30.03,10,10,10,23,13,29,0.00,1,,119
2012-12-6,50,43,35,41,36,32,96,78,60,30.00,29.94,29.89,10,10,10,22,10,28,0.02,7,Rain,222
2012-12-7,42,37,31,32,28,25,92,73,53,29.99,29.96,29.90,10,10,10,16,8,18,0.00,6,,27
2012-12-8,39,30,21,32,26,18,88,76,64,30.05,30.00,29.97,10,8,2,15,7,18,0.02,4,Snow,91
2012-12-9,36,28,20,36,30,16,100,89,78,29.96,29.87,29.78,10,4,1,30,12,37,0.13,8,Rain-Snow,112
2012-12-10,26,20,14,18,14,9,92,80,68,30.01,29.97,29.90,10,10,10,29,13,35,0.00,5,,286
2012-12-11,39,26,13,25,18,8,81,68,54,30.07,29.99,29.92,10,10,10,23,10,28,0.00,2,,222
2012-12-12,49,37,25,22,19,16,75,53,31,30.11,30.07,30.03,10,10,10,28,14,35,0.00,0,,185
2012-12-13,49,38,27,23,20,16,81,58,34,30.12,30.06,30.03,10,10,10,21,11,28,0.00,0,,203
2012-12-14,51,35,19,39,27,17,91,66,41,30.12,29.98,29.77,10,10,10,18,9,23,T,3,,134
2012-12-15,47,43,38,46,43,37,100,88,76,29.74,29.56,29.46,10,5,2,22,12,30,0.57,8,Rain,175
2012-12-16,38,32,25,35,30,22,100,93,85,29.81,29.73,29.63,10,6,2,21,11,24,0.00,8,,300
2012-12-17,29,26,22,27,23,21,100,92,84,29.81,29.75,29.69,10,6,2,12,4,31,0.00,8,,17
2012-12-18,35,32,29,34,30,27,100,91,82,29.89,29.66,29.49,9,5,2,17,10,22,0.00,8,,279
2012-12-19,35,34,32,32,31,30,100,91,82,30.01,29.88,29.72,8,4,0,28,11,35,0.11,8,Fog-Snow,71
2012-12-20,32,22,11,31,20,8,100,90,80,30.06,29.76,29.55,8,2,0,44,32,53,0.08,6,Fog-Snow,332
2012-12-21,19,11,3,11,6,1,92,80,67,30.33,30.23,30.02,10,10,10,28,11,32,0.00,0,,293
2012-12-22,28,16,4,20,10,1,92,83,73,30.28,30.09,29.97,10,9,8,13,6,16,0.00,0,Snow,123
2012-12-23,19,15,10,17,12,7,100,89,77,30.10,30.04,29.99,8,6,4,15,9,17,0.00,3,,35
2012-12-24,21,14,6,17,13,1,92,84,76,30.28,30.05,29.96,10,6,2,21,13,24,T,6,Snow,318
2012-12-25,12,7,1,4,1,-4,88,81,73,30.47,30.40,30.29,10,10,10,20,13,23,0.00,0,,352
2012-12-26,19,11,2,15,6,-2,92,83,73,30.35,30.29,30.25,10,10,10,14,9,17,0.00,3,,346
2012-12-27,24,13,2,20,11,0,96,85,73,30.26,30.17,30.06,10,10,10,16,7,18,0.00,5,,74
2012-12-28,28,22,15,25,22,14,92,87,81,30.06,29.98,29.91,10,4,1,14,7,16,0.01,7,Snow,40
2012-12-29,22,13,4,18,10,2,91,86,80,30.28,30.15,29.98,10,7,3,21,11,24,T,5,Snow,286
2012-12-30,36,19,1,24,13,-2,96,80,64,30.32,30.18,30.00,10,8,4,22,9,30,0.00,0,,180
2012-12-31,29,17,4,18,10,-1,88,78,67,30.29,30.18,30.06,10,10,9,18,12,23,0.00,2,,324